createdAt,value
2023-07-25T00:01:49.328Z,56
2023-07-25T00:04:20.713Z,55
2023-07-25T00:06:51.293Z,55
2023-07-25T00:09:22.048Z,55
2023-07-25T00:11:54.058Z,55
2023-07-25T00:14:25.109Z,55
2023-07-25T00:16:56.197Z,55
2023-07-25T00:19:27.691Z,54
2023-07-25T00:21:58.377Z,54
2023-07-25T00:24:29.786Z,54
2023-07-25T00:27:00.852Z,54
2023-07-25T00:29:31.494Z,54
2023-07-25T00:32:04.088Z,54
2023-07-25T00:34:35.337Z,54
2023-07-25T00:37:06.731Z,54
2023-07-25T00:39:38.764Z,54
2023-07-25T00:42:09.487Z,54
2023-07-25T00:44:40.713Z,54
2023-07-25T00:47:11.881Z,53
2023-07-25T00:49:43.454Z,53
2023-07-25T00:52:15.028Z,53
2023-07-25T00:54:46.034Z,53
2023-07-25T00:57:17.058Z,54
2023-07-25T00:59:48.422Z,53
2023-07-25T01:02:19.159Z,54
2023-07-25T01:04:50.547Z,54
2023-07-25T01:07:21.949Z,53
2023-07-25T01:09:52.676Z,53
2023-07-25T01:12:23.791Z,53
2023-07-25T01:14:55.081Z,53
2023-07-25T01:17:25.897Z,52
2023-07-25T01:19:56.527Z,52
2023-07-25T01:22:27.519Z,50
2023-07-25T01:24:58.502Z,50
2023-07-25T01:27:30.590Z,51
2023-07-25T01:30:01.507Z,52
2023-07-25T01:32:32.326Z,53
2023-07-25T01:35:03.120Z,54
2023-07-25T01:37:32.590Z,54
2023-07-25T01:40:03.694Z,56
2023-07-25T01:42:34.814Z,56
2023-07-25T01:45:06.128Z,55
2023-07-25T01:47:37.132Z,56
2023-07-25T01:50:08.103Z,57
2023-07-25T01:52:38.971Z,57
2023-07-25T01:55:10.025Z,57
2023-07-25T01:57:41.602Z,56
2023-07-25T02:00:12.701Z,54
2023-07-25T02:02:43.800Z,55
2023-07-25T02:05:15.016Z,57
2023-07-25T02:07:47.486Z,57
2023-07-25T02:10:18.274Z,57
2023-07-25T02:12:49.231Z,57
2023-07-25T02:15:18.645Z,57
2023-07-25T02:17:51.282Z,57
2023-07-25T02:20:22.058Z,56
2023-07-25T02:22:53.373Z,57
2023-07-25T02:25:24.714Z,58
2023-07-25T02:27:56.129Z,58
2023-07-25T02:30:26.810Z,57
2023-07-25T02:32:57.784Z,57
2023-07-25T02:35:28.682Z,57
2023-07-25T02:37:59.487Z,57
2023-07-25T02:40:30.107Z,57
2023-07-25T02:43:01.100Z,57
2023-07-25T02:45:31.957Z,58
2023-07-25T02:48:02.892Z,58
2023-07-25T02:50:33.977Z,58
2023-07-25T02:53:04.816Z,59
2023-07-25T02:55:35.665Z,59
2023-07-25T02:58:06.145Z,59
2023-07-25T03:00:35.900Z,60
2023-07-25T03:03:06.604Z,60
2023-07-25T03:05:37.969Z,60
2023-07-25T03:08:08.979Z,60
2023-07-25T03:10:39.895Z,60
2023-07-25T03:13:10.897Z,60
2023-07-25T03:15:42.231Z,59
2023-07-25T03:18:14.092Z,59
2023-07-25T03:20:45.036Z,59
2023-07-25T03:23:16.568Z,58
2023-07-25T03:25:47.965Z,58
2023-07-25T03:28:18.687Z,58
2023-07-25T03:30:49.683Z,59
2023-07-25T03:33:20.924Z,59
2023-07-25T03:35:52.229Z,60
2023-07-25T03:38:22.833Z,60
2023-07-25T03:40:53.469Z,60
2023-07-25T03:43:25.029Z,60
2023-07-25T03:45:55.984Z,58
2023-07-25T03:48:26.871Z,57
2023-07-25T03:50:57.783Z,57
2023-07-25T03:53:28.629Z,58
2023-07-25T03:55:59.393Z,58
2023-07-25T03:58:30.533Z,58
2023-07-25T04:01:00.603Z,59
2023-07-25T04:03:31.599Z,59
2023-07-25T04:06:02.276Z,59
2023-07-25T04:08:33.416Z,59
2023-07-25T04:11:04.166Z,59
2023-07-25T04:13:35.069Z,60
2023-07-25T04:16:05.565Z,61
2023-07-25T04:18:36.809Z,60
2023-07-25T04:21:08.209Z,61
2023-07-25T04:23:38.766Z,60
2023-07-25T04:26:10.203Z,61
2023-07-25T04:28:41.150Z,61
2023-07-25T04:31:12.372Z,62
2023-07-25T04:33:43.472Z,62
2023-07-25T04:36:14.508Z,62
2023-07-25T04:38:45.685Z,62
2023-07-25T04:41:16.361Z,65
2023-07-25T04:43:47.697Z,65
2023-07-25T04:46:18.383Z,65
2023-07-25T04:48:49.646Z,65
2023-07-25T04:51:20.772Z,64
2023-07-25T04:53:51.509Z,63
2023-07-25T04:56:22.668Z,63
2023-07-25T04:58:53.542Z,62
2023-07-25T05:01:24.419Z,61
2023-07-25T05:03:55.757Z,62
2023-07-25T05:06:26.589Z,62
2023-07-25T05:08:58.260Z,61
2023-07-25T05:11:29.599Z,64
2023-07-25T05:14:01.041Z,62
2023-07-25T05:16:31.990Z,61
2023-07-25T05:19:04.731Z,61
2023-07-25T05:21:35.765Z,61
2023-07-25T05:24:06.595Z,61
2023-07-25T05:26:37.468Z,62
2023-07-25T05:29:08.510Z,61
2023-07-25T05:31:38.987Z,61
2023-07-25T05:34:10.436Z,61
2023-07-25T05:36:41.186Z,61
2023-07-25T05:39:12.997Z,61
2023-07-25T05:41:44.427Z,60
2023-07-25T05:44:16.027Z,60
2023-07-25T05:46:46.532Z,61
2023-07-25T05:49:17.827Z,60
2023-07-25T05:51:48.805Z,60
2023-07-25T05:56:55.701Z,59
2023-07-25T05:59:25.142Z,59
2023-07-25T06:01:56.199Z,59
2023-07-25T06:04:26.960Z,59
2023-07-25T06:06:57.711Z,59
2023-07-25T06:09:29.140Z,59
2023-07-25T06:11:59.549Z,58
2023-07-25T06:14:30.760Z,58
2023-07-25T06:17:01.854Z,59
2023-07-25T06:19:33.336Z,58
2023-07-25T06:22:04.339Z,58
2023-07-25T06:24:35.463Z,59
2023-07-25T06:27:06.320Z,59
2023-07-25T06:29:37.228Z,58
2023-07-25T06:32:08.931Z,58
2023-07-25T06:34:39.667Z,60
2023-07-25T06:37:10.947Z,59
2023-07-25T06:39:41.837Z,59
2023-07-25T06:42:12.522Z,59
2023-07-25T06:44:43.022Z,59
2023-07-25T06:47:13.885Z,60
2023-07-25T06:49:46.114Z,59
2023-07-25T06:52:17.090Z,59
2023-07-25T06:54:47.423Z,60
2023-07-25T06:57:17.989Z,58
2023-07-25T06:59:49.039Z,58
2023-07-25T07:02:20.085Z,58
2023-07-25T07:04:50.962Z,58
2023-07-25T07:07:21.674Z,58
2023-07-25T07:09:53.086Z,57
2023-07-25T07:12:23.829Z,57
2023-07-25T07:14:54.670Z,56
2023-07-25T07:17:26.012Z,57
2023-07-25T07:19:56.522Z,56
2023-07-25T07:22:26.966Z,55
2023-07-25T07:24:58.771Z,55
2023-07-25T07:27:29.164Z,55
2023-07-25T07:30:00.390Z,55
2023-07-25T07:32:31.006Z,53
2023-07-25T07:35:01.723Z,53
2023-07-25T07:37:34.465Z,52
2023-07-25T07:40:03.910Z,51
2023-07-25T07:42:34.726Z,51
2023-07-25T07:45:06.972Z,52
2023-07-25T07:47:37.981Z,51
2023-07-25T07:50:08.748Z,51
2023-07-25T07:52:42.910Z,51
2023-07-25T07:55:11.060Z,50
2023-07-25T07:57:42.467Z,50
2023-07-25T08:00:14.438Z,50
2023-07-25T08:02:45.169Z,49
2023-07-25T08:05:16.057Z,50
2023-07-25T08:07:47.207Z,50
2023-07-25T08:10:18.441Z,49
2023-07-25T08:12:49.514Z,49
2023-07-25T08:15:20.198Z,49
2023-07-25T08:17:50.417Z,48
2023-07-25T08:20:21.371Z,48
2023-07-25T08:22:51.968Z,49
2023-07-25T08:25:22.953Z,47
2023-07-25T08:27:55.713Z,48
2023-07-25T08:30:25.472Z,48
2023-07-25T08:32:56.156Z,48
2023-07-25T08:35:26.727Z,47
2023-07-25T08:37:57.852Z,47
2023-07-25T08:40:28.824Z,46
2023-07-25T08:43:01.817Z,46
2023-07-25T08:45:32.984Z,46
2023-07-25T08:48:03.940Z,46
2023-07-25T08:50:32.881Z,46
2023-07-25T08:53:04.409Z,46
2023-07-25T08:55:35.857Z,46
2023-07-25T08:58:06.993Z,44
2023-07-25T09:00:37.620Z,44
2023-07-25T09:03:08.637Z,46
2023-07-25T09:05:39.189Z,44
2023-07-25T09:08:09.832Z,43
2023-07-25T09:10:40.750Z,44
2023-07-25T09:13:11.640Z,43
2023-07-25T09:15:42.713Z,43
2023-07-25T09:18:13.304Z,42
2023-07-25T09:20:44.241Z,44
2023-07-25T09:23:15.128Z,44
2023-07-25T09:25:49.334Z,43
2023-07-25T09:28:19.904Z,42
2023-07-25T09:30:51.226Z,43
2023-07-25T09:33:21.660Z,43
2023-07-25T09:35:54.505Z,41
2023-07-25T09:38:25.398Z,42
2023-07-25T09:40:55.913Z,43
2023-07-25T09:43:26.755Z,43
2023-07-25T09:45:57.485Z,43
2023-07-25T09:48:27.752Z,42
2023-07-25T09:50:58.140Z,42
2023-07-25T09:53:30.103Z,43
2023-07-25T09:56:01.334Z,43
2023-07-25T09:58:32.016Z,43
2023-07-25T10:01:02.738Z,44
2023-07-25T10:03:33.157Z,43
2023-07-25T10:06:03.976Z,44
2023-07-25T10:08:34.473Z,42
2023-07-25T10:11:05.244Z,42
2023-07-25T10:13:36.263Z,41
2023-07-25T10:16:07.202Z,42
2023-07-25T10:18:37.711Z,42
2023-07-25T10:21:06.788Z,41
2023-07-25T10:23:37.832Z,41
2023-07-25T10:26:10.404Z,43
2023-07-25T10:28:40.287Z,43
2023-07-25T10:31:11.244Z,44
2023-07-25T10:33:42.114Z,45
2023-07-25T10:36:12.828Z,44
2023-07-25T10:41:21.079Z,45
2023-07-25T10:43:51.912Z,46
2023-07-25T10:46:22.499Z,46
2023-07-25T10:48:53.576Z,45
2023-07-25T10:51:24.732Z,45
2023-07-25T10:53:55.597Z,44
2023-07-25T10:56:26.522Z,45
2023-07-25T10:58:57.571Z,45
2023-07-25T11:01:29.096Z,44
2023-07-25T11:03:59.549Z,43
2023-07-25T11:06:31.470Z,43
2023-07-25T11:09:02.204Z,44
2023-07-25T11:11:33.006Z,46
2023-07-25T11:14:03.566Z,46
2023-07-25T11:16:32.746Z,45
2023-07-25T11:19:04.086Z,44
2023-07-25T11:21:35.726Z,43
2023-07-25T11:24:06.402Z,44
2023-07-25T11:26:37.850Z,43
2023-07-25T11:29:10.829Z,46
2023-07-25T11:31:41.660Z,45
2023-07-25T11:34:12.334Z,44
2023-07-25T11:36:42.880Z,44
2023-07-25T11:39:13.697Z,45
2023-07-25T11:41:45.269Z,44
2023-07-25T11:44:16.103Z,44
2023-07-25T11:46:46.626Z,45
2023-07-25T11:49:22.645Z,42
2023-07-25T11:51:47.807Z,43
2023-07-25T11:54:18.989Z,44
2023-07-25T11:56:49.920Z,44
2023-07-25T11:59:20.812Z,44
2023-07-25T12:01:51.297Z,45
2023-07-25T12:04:22.011Z,44
2023-07-25T12:06:53.038Z,44
2023-07-25T12:09:24.229Z,44
2023-07-25T12:11:55.059Z,46
2023-07-25T12:14:26.004Z,45
2023-07-25T12:16:56.454Z,47
2023-07-25T12:19:25.628Z,46
2023-07-25T12:21:56.186Z,46
2023-07-25T12:24:27.782Z,48
2023-07-25T12:26:58.202Z,49
2023-07-25T12:29:29.072Z,49
2023-07-25T12:31:59.549Z,49
2023-07-25T12:34:29.881Z,49
2023-07-25T12:37:00.598Z,49
2023-07-25T12:39:31.448Z,49
2023-07-25T12:42:02.834Z,50
2023-07-25T12:44:33.253Z,50
2023-07-25T12:47:04.253Z,47
2023-07-25T12:49:35.337Z,45
2023-07-25T12:52:05.965Z,45
2023-07-25T12:54:36.326Z,44
2023-07-25T12:57:09.011Z,44
2023-07-25T12:59:40.596Z,44
2023-07-25T13:02:11.202Z,42
2023-07-25T13:04:41.959Z,43
2023-07-25T13:07:12.497Z,44
2023-07-25T13:09:43.097Z,46
2023-07-25T13:12:13.861Z,46
2023-07-25T13:14:44.834Z,45
2023-07-25T13:17:15.265Z,45
2023-07-25T13:19:46.222Z,43
2023-07-25T13:22:16.717Z,42
2023-07-25T13:24:47.403Z,43
2023-07-25T13:27:17.994Z,44
2023-07-25T13:29:48.485Z,44
2023-07-25T13:32:19.970Z,44
2023-07-25T13:34:50.553Z,43
2023-07-25T13:37:21.010Z,45
2023-07-25T13:39:51.489Z,45
2023-07-25T13:42:22.174Z,45
2023-07-25T13:44:52.752Z,44
2023-07-25T13:47:23.057Z,45
2023-07-25T13:49:53.488Z,44
2023-07-25T13:52:25.643Z,44
2023-07-25T13:54:56.190Z,43
2023-07-25T13:57:32.104Z,44
2023-07-25T13:59:57.895Z,43
2023-07-25T14:02:28.682Z,43
2023-07-25T14:04:59.388Z,43
2023-07-25T14:07:30.027Z,44
2023-07-25T14:10:00.654Z,43
2023-07-25T14:12:31.064Z,43
2023-07-25T14:15:02.318Z,44
2023-07-25T14:17:30.644Z,43
2023-07-25T14:20:01.183Z,45
2023-07-25T14:22:32.142Z,44
2023-07-25T14:25:03.327Z,46
2023-07-25T14:27:33.961Z,45
2023-07-25T14:30:04.217Z,45
2023-07-25T14:32:34.929Z,46
2023-07-25T14:35:05.420Z,46
2023-07-25T14:37:48.562Z,49
2023-07-25T14:40:06.341Z,47
2023-07-25T14:42:36.976Z,47
2023-07-25T14:45:08.011Z,47
2023-07-25T14:47:38.772Z,47
2023-07-25T14:50:11.023Z,49
2023-07-25T14:52:41.563Z,49
2023-07-25T14:55:12.226Z,48
2023-07-25T14:57:43.574Z,48
2023-07-25T15:00:14.167Z,48
2023-07-25T15:02:44.891Z,48
2023-07-25T15:05:15.648Z,48
2023-07-25T15:07:46.162Z,48
2023-07-25T15:10:16.739Z,48
2023-07-25T15:12:47.842Z,49
2023-07-25T15:15:18.278Z,49
2023-07-25T15:17:50.304Z,49
2023-07-25T15:20:21.185Z,48
2023-07-25T15:22:52.396Z,48
2023-07-25T15:25:22.796Z,49
2023-07-25T15:27:53.719Z,49
2023-07-25T15:30:24.865Z,49
2023-07-25T15:32:55.501Z,49
2023-07-25T15:35:25.964Z,49
2023-07-25T15:37:56.620Z,49
2023-07-25T15:40:27.599Z,49
2023-07-25T15:42:58.153Z,50
2023-07-25T15:45:28.668Z,49
2023-07-25T15:47:59.665Z,48
2023-07-25T15:50:30.174Z,49
2023-07-25T15:53:00.823Z,48
2023-07-25T15:55:31.293Z,49
2023-07-25T15:58:01.936Z,49
2023-07-25T16:00:33.682Z,49
2023-07-25T16:03:04.133Z,49
2023-07-25T16:05:34.620Z,49
2023-07-25T16:10:36.761Z,48
2023-07-25T16:13:07.478Z,48
2023-07-25T16:15:38.354Z,48
2023-07-25T16:18:08.968Z,49
2023-07-25T16:20:39.689Z,49
2023-07-25T16:23:10.285Z,49
2023-07-25T16:25:40.788Z,48
2023-07-25T16:28:11.236Z,49
2023-07-25T16:30:41.832Z,49
2023-07-25T16:33:12.783Z,49
2023-07-25T16:35:43.109Z,49
2023-07-25T16:38:13.843Z,49
2023-07-25T16:40:44.416Z,49
2023-07-25T16:43:14.863Z,49
2023-07-25T16:45:45.359Z,49
2023-07-25T16:48:15.975Z,49
2023-07-25T16:50:46.783Z,49
2023-07-25T16:53:18.370Z,50
2023-07-25T16:55:49.023Z,50
2023-07-25T16:58:19.607Z,49
2023-07-25T17:00:50.128Z,49
2023-07-25T17:03:20.521Z,49
2023-07-25T17:05:51.242Z,49
2023-07-25T17:08:21.662Z,49
2023-07-25T17:10:52.030Z,50
2023-07-25T17:13:22.616Z,51
2023-07-25T17:15:53.114Z,49
2023-07-25T17:18:23.709Z,50
2023-07-25T17:20:54.170Z,50
2023-07-25T17:23:24.457Z,50
2023-07-25T17:25:55.518Z,51
2023-07-25T17:28:26.029Z,51
2023-07-25T17:30:56.718Z,51
2023-07-25T17:33:27.182Z,51
2023-07-25T17:35:57.567Z,52
2023-07-25T17:38:28.244Z,52
2023-07-25T17:40:58.737Z,52
2023-07-25T17:43:29.391Z,52
2023-07-25T17:45:59.909Z,53
2023-07-25T17:48:30.300Z,52
2023-07-25T17:51:00.865Z,52
2023-07-25T17:53:31.200Z,52
2023-07-25T17:56:01.642Z,52
2023-07-25T17:58:32.055Z,52
2023-07-25T18:01:02.766Z,52
2023-07-25T18:03:33.685Z,52
2023-07-25T18:06:04.173Z,52
2023-07-25T18:08:35.092Z,53
2023-07-25T18:11:03.734Z,53
2023-07-25T18:13:34.377Z,53
2023-07-25T18:16:05.009Z,53
2023-07-25T18:18:35.711Z,54
2023-07-25T18:21:09.239Z,54
2023-07-25T18:23:37.403Z,54
2023-07-25T18:26:07.776Z,54
2023-07-25T18:28:38.313Z,54
2023-07-25T18:31:09.126Z,54
2023-07-25T18:33:39.402Z,55
2023-07-25T18:36:10.920Z,55
2023-07-25T18:38:44.114Z,55
2023-07-25T18:41:14.364Z,55
2023-07-25T18:43:44.365Z,55
2023-07-25T18:46:15.489Z,55
2023-07-25T18:48:46.294Z,55
2023-07-25T18:51:17.246Z,55
2023-07-25T18:53:48.040Z,55
2023-07-25T18:56:19.680Z,55
2023-07-25T18:58:50.141Z,54
2023-07-25T19:01:21.776Z,55
2023-07-25T19:03:52.431Z,55
2023-07-25T19:06:22.954Z,55
2023-07-25T19:08:53.453Z,54
2023-07-25T19:11:24.038Z,54
2023-07-25T19:13:55.105Z,54
2023-07-25T19:16:25.796Z,54
2023-07-25T19:18:56.464Z,55
2023-07-25T19:21:27.177Z,54
2023-07-25T19:23:57.455Z,54
2023-07-25T19:26:27.815Z,54
2023-07-25T19:29:00.418Z,53
2023-07-25T19:31:29.646Z,54
2023-07-25T19:34:00.368Z,53
2023-07-25T19:36:31.197Z,53
2023-07-25T19:39:01.429Z,53
2023-07-25T19:41:31.989Z,54
2023-07-25T19:44:02.250Z,53
2023-07-25T19:46:33.292Z,54
2023-07-25T19:49:03.432Z,54
2023-07-25T19:51:35.033Z,54
2023-07-25T19:54:05.615Z,54
2023-07-25T19:56:36.481Z,54
2023-07-25T19:59:07.849Z,54
2023-07-25T20:01:40.638Z,54
2023-07-25T20:04:10.995Z,54
2023-07-25T20:06:41.530Z,54
2023-07-25T20:09:12.352Z,54
2023-07-25T20:11:42.603Z,54
2023-07-25T20:14:13.215Z,54
2023-07-25T20:16:43.584Z,53
2023-07-25T20:19:15.104Z,55
2023-07-25T20:21:45.742Z,54
2023-07-25T20:24:16.218Z,54
2023-07-25T20:26:46.396Z,55
2023-07-25T20:29:16.880Z,55
2023-07-25T20:31:47.747Z,54
2023-07-25T20:34:18.134Z,55
2023-07-25T20:36:48.572Z,55
2023-07-25T20:39:19.022Z,55
2023-07-25T20:41:49.662Z,55
2023-07-25T20:44:20.076Z,55
2023-07-25T20:46:50.666Z,55
2023-07-25T20:49:23.290Z,55
2023-07-25T20:51:53.862Z,56
2023-07-25T20:54:24.617Z,55
2023-07-25T20:56:55.175Z,56
2023-07-25T20:59:26.191Z,56
2023-07-25T21:01:56.766Z,56
2023-07-25T21:04:28.866Z,56
2023-07-25T21:06:58.515Z,56
2023-07-25T21:09:29.122Z,56
2023-07-25T21:11:59.488Z,56
2023-07-25T21:14:30.066Z,56
2023-07-25T21:17:01.069Z,57
2023-07-25T21:19:31.490Z,56
2023-07-25T21:22:04.694Z,57
2023-07-25T21:24:35.544Z,57
2023-07-25T21:27:06.513Z,57
2023-07-25T21:29:37.139Z,57
2023-07-25T21:32:08.285Z,58
2023-07-25T21:34:39.464Z,58
2023-07-25T21:37:10.026Z,58
2023-07-25T21:39:40.800Z,59
2023-07-25T21:42:11.868Z,58
2023-07-25T21:44:42.617Z,58
2023-07-25T21:47:13.962Z,58
2023-07-25T21:49:44.583Z,59
2023-07-25T21:52:16.849Z,59
2023-07-25T21:54:47.533Z,59
2023-07-25T21:57:17.994Z,58
2023-07-25T21:59:48.621Z,58
2023-07-25T22:05:22.543Z,59
2023-07-25T22:07:53.911Z,58
2023-07-25T22:10:25.315Z,58
2023-07-25T22:12:56.211Z,58
2023-07-25T22:15:27.712Z,58
2023-07-25T22:17:59.747Z,58
2023-07-25T22:20:35.122Z,58
2023-07-25T22:23:02.024Z,59
2023-07-25T22:25:32.955Z,59
2023-07-25T22:28:03.474Z,58
2023-07-25T22:30:35.426Z,58
2023-07-25T22:33:06.054Z,58
2023-07-25T22:35:39.540Z,59
2023-07-25T22:38:11.052Z,58
2023-07-25T22:40:41.755Z,58
2023-07-25T22:43:12.476Z,59
2023-07-25T22:45:43.446Z,58
2023-07-25T22:48:16.105Z,59
2023-07-25T22:50:48.393Z,58
2023-07-25T22:53:20.250Z,58
2023-07-25T22:55:51.964Z,58
2023-07-25T22:58:24.427Z,58
2023-07-25T23:00:55.719Z,58
2023-07-25T23:03:27.620Z,58
2023-07-25T23:05:59.905Z,59
2023-07-25T23:08:30.951Z,58
2023-07-25T23:11:01.972Z,58
2023-07-25T23:13:35.904Z,59
2023-07-25T23:16:08.747Z,59
2023-07-25T23:18:42.638Z,58
2023-07-25T23:21:14.923Z,59
2023-07-25T23:23:45.915Z,59
2023-07-25T23:26:17.002Z,58
2023-07-25T23:28:47.730Z,58
2023-07-25T23:31:19.740Z,58
2023-07-25T23:33:50.215Z,59
2023-07-25T23:36:21.923Z,58
2023-07-25T23:38:53.034Z,58
2023-07-25T23:41:23.513Z,58
2023-07-25T23:43:54.871Z,58
2023-07-25T23:46:25.797Z,58
2023-07-25T23:48:58.226Z,58
2023-07-25T23:51:29.643Z,58
2023-07-25T23:54:02.436Z,59
2023-07-25T23:56:33.526Z,59
2023-07-25T23:59:04.458Z,59
